Time;durP1;ratioP1;P1;durP2;ratioP2;P2;SDS_P1;SDS_P2;PMS_P1;PMS_P2;Temp;Humidity;BMP_temperature;BMP_pressure;BME280_temperature;BME280_humidity;BME280_pressure;Samples;Min_cycle;Max_cycle;Signal;HPM_P1;HPM_P2
2023/09/28 00:00:59;;;;;;;14.53;10.93;;;18.80;99.90;;;;;;5036140;28;20467;-59
2023/09/28 00:03:27;;;;;;;25.87;11.67;;;;;;;;;;5036015;28;20495;-59
2023/09/28 00:05:53;;;;;;;13.37;11.30;;;18.60;99.90;;;;;;5035958;28;20444;-60
2023/09/28 00:08:20;;;;;;;23.97;11.07;;;19.10;99.90;;;;;;5035741;28;20483;-59
2023/09/28 00:10:47;;;;;;;16.00;10.83;;;19.00;99.90;;;;;;5035492;28;20812;-58
2023/09/28 00:13:14;;;;;;;14.00;11.23;;;;;;;;;;5035623;28;20511;-58
2023/09/28 00:15:40;;;;;;;14.27;10.97;;;19.10;99.90;;;;;;5035395;28;20480;-61
2023/09/28 00:18:08;;;;;;;14.17;11.07;;;19.40;99.90;;;;;;5035222;28;20503;-58
2023/09/28 00:20:34;;;;;;;24.70;11.73;;;19.00;99.90;;;;;;5035647;28;20198;-60
2023/09/28 00:23:00;;;;;;;15.30;10.00;;;18.90;99.90;;;;;;5035232;28;20483;-59
2023/09/28 00:25:26;;;;;;;13.00;11.07;;;18.80;99.90;;;;;;5035578;28;20212;-58
2023/09/28 00:27:56;;;;;;;16.57;11.10;;;18.90;99.90;;;;;;5035043;28;21015;-60
2023/09/28 00:30:24;;;;;;;14.97;11.60;;;19.00;99.90;;;;;;5035259;28;20756;-59
2023/09/28 00:32:52;;;;;;;14.07;11.00;;;18.90;99.90;;;;;;5034926;28;20479;-60
2023/09/28 00:35:19;;;;;;;17.27;12.27;;;18.70;99.90;;;;;;5035155;28;20523;-59
2023/09/28 00:37:48;;;;;;;15.13;10.67;;;18.80;99.90;;;;;;5035103;28;20510;-59
2023/09/28 00:40:19;;;;;;;13.33;10.90;;;18.70;99.90;;;;;;5035406;28;20439;-60
2023/09/28 00:42:46;;;;;;;13.20;10.10;;;18.70;99.90;;;;;;5035307;28;20428;-59
2023/09/28 00:45:14;;;;;;;14.67;11.10;;;18.70;99.90;;;;;;5035435;28;20941;-60
2023/09/28 00:47:41;;;;;;;13.60;12.17;;;18.60;99.90;;;;;;5035061;28;20455;-60
2023/09/28 00:50:10;;;;;;;12.97;11.30;;;18.70;99.90;;;;;;5035176;28;20459;-59
2023/09/28 00:52:39;;;;;;;19.53;14.70;;;18.50;99.90;;;;;;5034916;28;20480;-59
2023/09/28 00:55:06;;;;;;;13.03;10.50;;;18.50;99.90;;;;;;5034727;28;20951;-59
2023/09/28 00:57:35;;;;;;;13.97;11.00;;;18.50;99.90;;;;;;5034899;28;20923;-59
2023/09/28 01:00:15;;;;;;;15.33;10.53;;;18.50;99.90;;;;;;5034139;28;20502;-60
2023/09/28 01:02:44;;;;;;;19.33;11.37;;;18.30;99.90;;;;;;5034647;28;20881;-59
2023/09/28 01:05:10;;;;;;;15.37;10.97;;;18.50;99.90;;;;;;5034590;28;20451;-59
2023/09/28 01:07:37;;;;;;;12.87;10.90;;;;;;;;;;5034635;28;20443;-61
2023/09/28 01:10:04;;;;;;;16.30;12.87;;;;;;;;;;5034395;28;20468;-59
2023/09/28 01:12:31;;;;;;;14.80;11.20;;;18.50;99.90;;;;;;5034327;28;20476;-60
2023/09/28 01:14:58;;;;;;;20.60;11.47;;;18.50;99.90;;;;;;5034651;28;20472;-59
2023/09/28 01:17:25;;;;;;;18.43;11.83;;;18.40;99.90;;;;;;5034465;28;20456;-60
2023/09/28 01:19:53;;;;;;;14.50;11.60;;;18.40;99.90;;;;;;5034779;28;20541;-60
2023/09/28 01:22:22;;;;;;;11.97;10.57;;;18.40;99.90;;;;;;5034543;28;20440;-59
2023/09/28 01:24:48;;;;;;;16.73;10.30;;;18.30;99.90;;;;;;5034579;28;20440;-59
2023/09/28 01:27:15;;;;;;;12.60;10.67;;;;;;;;;;5034521;28;21002;-59
2023/09/28 01:29:41;;;;;;;15.10;12.33;;;;;;;;;;5034457;28;20321;-59
2023/09/28 01:32:08;;;;;;;13.13;11.00;;;18.50;99.90;;;;;;5034521;28;20871;-60
2023/09/28 01:34:34;;;;;;;13.97;11.20;;;18.80;99.90;;;;;;5034085;28;20878;-60
2023/09/28 01:37:01;;;;;;;14.33;10.30;;;18.10;99.90;;;;;;5034458;28;20480;-59
2023/09/28 01:39:28;;;;;;;19.23;11.60;;;18.20;99.90;;;;;;5034394;28;20225;-60
2023/09/28 01:41:55;;;;;;;14.70;11.17;;;18.70;99.90;;;;;;5034387;28;20543;-62
2023/09/28 01:44:22;;;;;;;13.70;11.57;;;18.20;99.90;;;;;;5034329;28;20486;-59
2023/09/28 01:46:49;;;;;;;11.13;9.77;;;18.10;99.90;;;;;;5034067;28;20444;-56
2023/09/28 01:49:15;;;;;;;14.30;11.23;;;18.10;99.90;;;;;;5034305;28;20482;-58
2023/09/28 01:51:42;;;;;;;13.07;10.60;;;18.00;99.90;;;;;;5033971;28;20803;-60
2023/09/28 01:54:08;;;;;;;16.37;10.40;;;18.30;99.90;;;;;;5033886;28;20261;-59
2023/09/28 01:56:36;;;;;;;12.30;9.93;;;18.10;99.90;;;;;;5033982;28;20476;-59
2023/09/28 01:59:02;;;;;;;14.10;10.10;;;18.20;99.90;;;;;;5034219;28;20981;-59
2023/09/28 02:01:31;;;;;;;12.80;11.23;;;18.00;99.90;;;;;;5033967;28;20489;-59
2023/09/28 02:03:57;;;;;;;15.50;10.50;;;18.10;99.90;;;;;;5034124;28;20933;-59
2023/09/28 02:06:24;;;;;;;15.10;10.30;;;17.90;99.90;;;;;;5034027;28;20524;-58
2023/09/28 02:08:50;;;;;;;13.50;10.40;;;18.00;99.90;;;;;;5034340;28;20440;-60
2023/09/28 02:11:17;;;;;;;13.07;9.30;;;18.00;99.90;;;;;;5035180;28;20499;-59
2023/09/28 02:13:44;;;;;;;10.13;9.10;;;18.00;99.90;;;;;;5038022;28;20236;-59
2023/09/28 02:16:12;;;;;;;11.77;10.33;;;18.10;99.90;;;;;;5037684;28;20464;-60
2023/09/28 02:18:38;;;;;;;12.87;10.33;;;18.10;99.90;;;;;;5037663;28;20424;-56
2023/09/28 02:21:13;;;;;;;13.47;9.80;;;18.00;99.90;;;;;;5037575;28;20456;-59
2023/09/28 02:23:38;;;;;;;13.83;9.30;;;17.80;99.90;;;;;;5037830;28;20737;-59
2023/09/28 02:26:07;;;;;;;14.47;10.30;;;17.50;99.90;;;;;;5037834;28;20450;-61
2023/09/28 02:28:33;;;;;;;16.27;10.10;;;18.10;99.90;;;;;;5037455;28;20221;-58
2023/09/28 02:31:07;;;;;;;13.40;9.60;;;17.80;99.90;;;;;;5037813;28;20490;-59
2023/09/28 02:33:33;;;;;;;12.50;9.30;;;18.10;99.90;;;;;;5051566;28;20176;-56
2023/09/28 02:36:00;;;;;;;12.17;9.67;;;17.80;99.90;;;;;;5061572;28;20448;-52
2023/09/28 02:38:26;;;;;;;11.90;9.70;;;17.60;99.90;;;;;;5061481;28;20188;-58
2023/09/28 02:40:53;;;;;;;15.67;9.37;;;;;;;;;;5061401;28;20440;-49
2023/09/28 02:43:19;;;;;;;15.03;10.40;;;17.60;99.90;;;;;;5061502;28;20405;-54
2023/09/28 02:45:46;;;;;;;14.37;10.77;;;17.80;99.90;;;;;;5061297;28;20440;-57
2023/09/28 02:48:13;;;;;;;16.20;9.77;;;17.80;99.90;;;;;;5061296;28;20190;-55
2023/09/28 02:50:40;;;;;;;13.77;10.53;;;17.90;99.90;;;;;;5061196;28;20440;-54
2023/09/28 02:53:07;;;;;;;10.20;9.00;;;17.70;99.90;;;;;;5061243;28;20421;-55
2023/09/28 02:55:34;;;;;;;14.90;10.63;;;17.80;99.90;;;;;;5061098;28;20829;-54
2023/09/28 02:58:01;;;;;;;14.30;9.20;;;18.20;99.90;;;;;;5061198;28;20727;-54
2023/09/28 03:00:32;;;;;;;18.13;10.50;;;;;;;;;;5061005;28;20468;-54
2023/09/28 03:03:00;;;;;;;15.43;9.50;;;17.50;99.90;;;;;;5061149;28;20439;-56
2023/09/28 03:05:29;;;;;;;14.50;11.50;;;17.60;99.90;;;;;;5060951;28;20504;-57
2023/09/28 03:07:55;;;;;;;12.30;10.13;;;17.40;99.90;;;;;;5060976;28;20477;-57
2023/09/28 03:10:22;;;;;;;13.47;10.70;;;17.50;99.90;;;;;;5060891;28;20441;-56
2023/09/28 03:12:51;;;;;;;13.23;9.37;;;17.40;99.90;;;;;;5060741;28;20444;-55
2023/09/28 03:15:18;;;;;;;16.33;11.77;;;17.40;99.90;;;;;;5060871;28;20471;-49
2023/09/28 03:17:48;;;;;;;14.80;9.67;;;17.40;99.90;;;;;;5060753;28;20458;-57
2023/09/28 03:20:15;;;;;;;19.63;9.73;;;;;;;;;;5060815;28;20458;-57
2023/09/28 03:22:44;;;;;;;15.07;9.80;;;17.30;99.90;;;;;;5060072;28;20412;-52
2023/09/28 03:25:16;;;;;;;14.37;9.13;;;17.30;99.90;;;;;;5060658;28;20449;-52
2023/09/28 03:27:45;;;;;;;11.37;8.50;;;17.30;99.90;;;;;;5060678;28;20427;-57
2023/09/28 03:30:15;;;;;;;11.60;9.93;;;17.20;99.90;;;;;;5060504;28;20456;-52
2023/09/28 03:32:44;;;;;;;15.37;9.73;;;;;;;;;;5060509;28;20440;-52
2023/09/28 03:35:13;;;;;;;13.50;9.67;;;17.00;99.90;;;;;;5060434;28;20443;-58
2023/09/28 03:37:41;;;;;;;13.17;9.80;;;17.00;99.90;;;;;;5060501;28;20495;-57
2023/09/28 03:40:11;;;;;;;14.10;9.80;;;17.30;99.90;;;;;;5060138;28;20444;-55
2023/09/28 03:42:38;;;;;;;15.87;8.73;;;16.90;99.90;;;;;;5060438;28;20412;-56
2023/09/28 03:45:09;;;;;;;11.00;9.23;;;17.20;99.90;;;;;;5060232;28;20495;-54
2023/09/28 03:47:36;;;;;;;15.00;9.23;;;17.20;99.90;;;;;;5060329;28;20411;-52
2023/09/28 03:50:07;;;;;;;14.10;10.00;;;17.10;99.90;;;;;;5060178;28;20432;-55
2023/09/28 03:52:34;;;;;;;12.57;9.70;;;17.20;99.90;;;;;;5060097;28;20483;-58
2023/09/28 03:55:03;;;;;;;13.63;9.30;;;;;;;;;;5060015;28;20445;-58
2023/09/28 03:57:34;;;;;;;10.93;9.63;;;17.20;99.90;;;;;;5060112;28;20420;-55
2023/09/28 04:00:04;;;;;;;16.03;9.47;;;17.10;99.90;;;;;;5060048;28;20425;-53
2023/09/28 04:02:33;;;;;;;13.30;9.90;;;17.20;99.90;;;;;;5059977;28;20458;-56
2023/09/28 04:05:00;;;;;;;14.30;11.43;;;;;;;;;;5059923;28;20462;-49
2023/09/28 04:07:27;;;;;;;16.73;11.03;;;17.20;99.90;;;;;;5059905;28;20427;-53
2023/09/28 04:09:54;;;;;;;11.43;9.10;;;16.90;99.90;;;;;;5059762;28;20430;-56
2023/09/28 04:12:21;;;;;;;10.63;9.53;;;17.10;99.90;;;;;;5059758;28;20452;-50
2023/09/28 04:14:49;;;;;;;12.80;10.07;;;16.90;99.90;;;;;;5059705;28;20448;-56
2023/09/28 04:17:17;;;;;;;17.37;9.80;;;17.20;99.90;;;;;;5059515;28;20448;-57
2023/09/28 04:19:45;;;;;;;11.90;10.10;;;;;;;;;;5059637;28;20455;-55
2023/09/28 04:22:12;;;;;;;18.07;10.10;;;;;;;;;;5059540;28;20441;-56
2023/09/28 04:24:39;;;;;;;14.07;11.10;;;;;;;;;;5059676;28;20405;-53
2023/09/28 04:27:08;;;;;;;13.27;10.47;;;16.70;99.90;;;;;;5059408;28;20432;-52
2023/09/28 04:29:35;;;;;;;17.87;9.83;;;;;;;;;;5059562;28;20409;-54
2023/09/28 04:32:05;;;;;;;14.77;10.80;;;16.80;99.90;;;;;;5059314;28;20535;-55
2023/09/28 04:34:34;;;;;;;12.07;9.70;;;16.60;99.90;;;;;;5058394;28;20421;-57
2023/09/28 04:37:04;;;;;;;11.53;9.70;;;16.80;99.90;;;;;;5059164;28;20432;-56
2023/09/28 04:39:33;;;;;;;10.37;8.67;;;16.70;99.90;;;;;;5059316;28;20439;-54
2023/09/28 04:42:00;;;;;;;12.20;10.37;;;16.70;99.90;;;;;;5059290;28;20495;-53
2023/09/28 04:44:27;;;;;;;15.97;10.40;;;16.80;99.90;;;;;;5059168;28;20408;-55
2023/09/28 04:46:54;;;;;;;15.93;10.00;;;;;;;;;;5059161;28;20452;-55
2023/09/28 04:49:23;;;;;;;15.73;10.57;;;16.70;99.90;;;;;;5059109;28;20432;-54
2023/09/28 04:51:51;;;;;;;14.60;10.20;;;16.90;99.90;;;;;;5058924;28;20548;-52
2023/09/28 04:54:19;;;;;;;14.47;10.43;;;;;;;;;;5058921;28;20433;-53
2023/09/28 04:56:45;;;;;;;22.90;10.80;;;16.50;99.90;;;;;;5058919;28;20555;-56
2023/09/28 04:59:13;;;;;;;14.03;10.03;;;;;;;;;;5058709;28;20488;-54
2023/09/28 05:01:45;;;;;;;17.47;10.63;;;16.70;99.90;;;;;;5058837;28;20460;-55
2023/09/28 05:04:16;;;;;;;13.33;9.80;;;16.60;99.90;;;;;;5058759;28;20446;-54
2023/09/28 05:06:44;;;;;;;13.30;9.20;;;16.70;99.90;;;;;;5058679;28;20504;-55
2023/09/28 05:09:13;;;;;;;13.50;9.53;;;16.70;99.90;;;;;;5058832;28;20436;-54
2023/09/28 05:11:40;;;;;;;12.13;10.30;;;16.60;99.90;;;;;;5058659;28;20460;-54
2023/09/28 05:14:07;;;;;;;16.43;9.80;;;;;;;;;;5058803;28;20407;-58
2023/09/28 05:16:34;;;;;;;15.93;9.53;;;;;;;;;;5058637;28;20447;-55
2023/09/28 05:19:01;;;;;;;22.30;11.17;;;16.60;99.90;;;;;;5058661;28;20412;-56
2023/09/28 05:21:28;;;;;;;16.67;9.57;;;16.60;99.90;;;;;;5058612;28;20404;-53
2023/09/28 05:23:56;;;;;;;13.27;10.00;;;16.60;99.90;;;;;;5058655;28;20408;-54
2023/09/28 05:26:23;;;;;;;12.53;9.70;;;;;;;;;;5058404;28;20420;-55
2023/09/28 05:28:50;;;;;;;10.70;9.60;;;16.60;99.90;;;;;;5058583;28;20425;-58
2023/09/28 05:31:17;;;;;;;10.83;9.60;;;16.60;99.90;;;;;;5058506;28;20404;-53
2023/09/28 05:33:44;;;;;;;13.70;9.53;;;16.80;99.90;;;;;;5058391;28;20483;-58
2023/09/28 05:36:12;;;;;;;23.73;11.40;;;16.20;99.90;;;;;;5058523;28;20420;-53
2023/09/28 05:38:39;;;;;;;12.23;8.73;;;;;;;;;;5058391;28;20444;-52
2023/09/28 05:41:07;;;;;;;12.37;10.33;;;16.80;99.90;;;;;;5058396;28;20417;-53
2023/09/28 05:43:34;;;;;;;11.50;9.40;;;16.90;99.90;;;;;;5058408;28;20444;-54
2023/09/28 05:46:03;;;;;;;21.00;10.33;;;16.70;99.90;;;;;;5059388;28;20409;-55
2023/09/28 05:48:33;;;;;;;20.37;10.63;;;16.70;99.90;;;;;;5062523;28;20428;-53
2023/09/28 05:51:00;;;;;;;15.97;11.50;;;16.90;99.90;;;;;;5062439;28;20449;-48
2023/09/28 05:53:29;;;;;;;12.37;10.30;;;16.50;99.90;;;;;;5062380;28;20468;-56
2023/09/28 05:56:01;;;;;;;12.60;10.50;;;16.80;99.90;;;;;;5062440;28;20433;-55
2023/09/28 05:58:29;;;;;;;20.50;10.43;;;16.80;99.90;;;;;;5062252;28;20436;-57
2023/09/28 06:00:57;;;;;;;12.90;9.70;;;16.70;99.90;;;;;;5061768;28;20435;-55
2023/09/28 06:03:26;;;;;;;18.27;11.40;;;16.70;99.90;;;;;;5062140;28;20459;-56
2023/09/28 06:05:53;;;;;;;14.70;11.10;;;;;;;;;;5062180;28;20451;-53
2023/09/28 06:08:20;;;;;;;10.90;9.80;;;17.00;99.90;;;;;;5062006;28;20448;-52
2023/09/28 06:10:48;;;;;;;14.50;11.70;;;17.10;99.90;;;;;;5062034;28;20420;-51
2023/09/28 06:13:18;;;;;;;11.77;9.53;;;17.00;99.90;;;;;;5061828;28;20479;-50
2023/09/28 06:15:46;;;;;;;16.07;11.73;;;17.10;99.90;;;;;;5062184;28;20413;-57
2023/09/28 06:18:14;;;;;;;19.00;11.13;;;;;;;;;;5061721;28;20444;-55
2023/09/28 06:20:41;;;;;;;17.57;10.73;;;17.10;99.90;;;;;;5061869;28;20424;-55
2023/09/28 06:23:09;;;;;;;12.30;10.60;;;16.70;99.90;;;;;;5061821;28;20444;-55
2023/09/28 06:25:36;;;;;;;15.23;10.97;;;;;;;;;;5061704;28;20415;-55
2023/09/28 06:28:06;;;;;;;13.73;11.03;;;17.10;99.90;;;;;;5061436;28;20475;-53
2023/09/28 06:30:32;;;;;;;13.93;10.50;;;17.20;99.90;;;;;;5061674;28;20431;-54
2023/09/28 06:33:04;;;;;;;11.20;9.87;;;17.10;99.90;;;;;;5061437;28;20468;-57
2023/09/28 06:35:31;;;;;;;13.17;10.40;;;17.30;99.90;;;;;;5061654;28;20443;-55
2023/09/28 06:38:00;;;;;;;14.67;9.73;;;17.30;99.90;;;;;;5061495;28;20452;-57
2023/09/28 06:40:27;;;;;;;12.13;10.53;;;17.20;99.90;;;;;;5061378;28;20443;-57
2023/09/28 06:42:56;;;;;;;13.20;10.60;;;17.40;99.90;;;;;;5061494;28;20457;-56
2023/09/28 06:45:27;;;;;;;14.43;10.30;;;17.50;99.90;;;;;;5061316;28;20420;-54
2023/09/28 06:47:54;;;;;;;17.07;12.23;;;17.50;99.90;;;;;;5061339;28;20444;-54
2023/09/28 06:50:23;;;;;;;17.10;10.50;;;17.70;99.90;;;;;;5061332;28;20408;-53
2023/09/28 06:52:52;;;;;;;22.53;11.73;;;17.60;99.90;;;;;;5061044;28;20485;-56
2023/09/28 06:55:19;;;;;;;11.83;9.93;;;17.60;99.90;;;;;;5061262;28;20492;-56
2023/09/28 06:57:46;;;;;;;12.83;11.40;;;17.60;99.90;;;;;;5060013;28;20440;-55
2023/09/28 07:00:16;;;;;;;16.70;12.10;;;18.20;99.90;;;;;;5061197;28;20436;-56
2023/09/28 07:02:49;;;;;;;15.00;11.47;;;17.80;99.90;;;;;;5060953;28;20404;-53
2023/09/28 07:05:17;;;;;;;15.20;11.63;;;17.80;99.90;;;;;;5060978;28;20401;-56
2023/09/28 07:07:46;;;;;;;16.40;11.10;;;18.00;99.90;;;;;;5060985;28;20436;-57
2023/09/28 07:10:13;;;;;;;16.00;11.10;;;18.00;99.90;;;;;;5061029;28;20424;-51
2023/09/28 07:12:40;;;;;;;18.77;12.50;;;18.10;99.90;;;;;;5060709;28;20451;-49
2023/09/28 07:15:08;;;;;;;17.50;11.97;;;18.20;99.90;;;;;;5060757;28;20468;-53
2023/09/28 07:17:37;;;;;;;13.40;10.53;;;18.40;99.90;;;;;;5060515;28;20436;-54
2023/09/28 07:20:05;;;;;;;16.23;10.83;;;18.40;99.90;;;;;;5060679;28;20491;-55
2023/09/28 07:22:33;;;;;;;19.93;12.73;;;18.40;99.90;;;;;;5060604;28;20400;-55
2023/09/28 07:25:01;;;;;;;17.77;10.10;;;18.60;99.90;;;;;;5060684;28;20416;-56
2023/09/28 07:27:32;;;;;;;22.83;11.23;;;18.50;99.90;;;;;;5060673;28;20420;-58
2023/09/28 07:30:05;;;;;;;21.63;12.13;;;18.50;99.90;;;;;;5060493;28;20435;-56
2023/09/28 07:32:34;;;;;;;16.70;13.20;;;18.60;99.90;;;;;;5060466;28;20468;-52
2023/09/28 07:35:02;;;;;;;15.73;13.20;;;;;;;;;;5060419;28;20412;-55
2023/09/28 07:37:29;;;;;;;12.83;11.43;;;;;;;;;;5060367;28;20420;-53
2023/09/28 07:39:56;;;;;;;18.17;11.83;;;18.80;99.90;;;;;;5060349;28;20470;-52
2023/09/28 07:42:25;;;;;;;17.63;11.57;;;19.20;99.90;;;;;;5060356;28;20439;-56
2023/09/28 07:44:52;;;;;;;15.23;12.00;;;18.90;99.90;;;;;;5060198;28;20431;-54
2023/09/28 07:47:20;;;;;;;14.90;11.30;;;19.00;99.90;;;;;;5060319;28;20408;-54
2023/09/28 07:49:46;;;;;;;19.10;11.43;;;19.10;99.90;;;;;;5059996;28;20464;-57
2023/09/28 07:52:15;;;;;;;16.47;10.20;;;19.30;99.90;;;;;;5059950;28;20416;-51
2023/09/28 07:54:43;;;;;;;16.30;11.00;;;19.50;99.90;;;;;;5059873;28;20436;-51
2023/09/28 07:57:11;;;;;;;18.07;11.00;;;;;;;;;;5059856;28;20443;-58
2023/09/28 07:59:40;;;;;;;24.13;10.97;;;19.20;99.90;;;;;;5059877;28;20440;-56
2023/09/28 08:02:09;;;;;;;14.90;10.70;;;19.60;99.90;;;;;;5059817;28;20429;-54
2023/09/28 08:04:36;;;;;;;14.87;11.00;;;19.50;99.90;;;;;;5059891;28;20444;-54
2023/09/28 08:07:04;;;;;;;13.20;10.40;;;19.50;99.90;;;;;;5059832;28;20427;-55
2023/09/28 08:09:32;;;;;;;14.40;11.93;;;19.70;99.90;;;;;;5059473;28;20503;-52
2023/09/28 08:12:00;;;;;;;39.50;25.83;;;20.50;99.90;;;;;;5059544;28;20408;-53
2023/09/28 08:14:27;;;;;;;17.40;12.70;;;19.90;99.90;;;;;;5059567;28;20480;-48
2023/09/28 08:16:58;;;;;;;20.70;11.57;;;20.00;99.90;;;;;;5059364;28;20455;-55
2023/09/28 08:19:25;;;;;;;14.07;10.40;;;20.20;99.90;;;;;;5059365;28;20460;-54
2023/09/28 08:21:52;;;;;;;13.10;10.70;;;20.80;99.90;;;;;;5059509;28;20408;-51
2023/09/28 08:24:20;;;;;;;12.70;10.20;;;20.90;99.90;;;;;;5059368;28;20499;-52
2023/09/28 08:26:47;;;;;;;13.00;9.97;;;22.30;99.90;;;;;;5059453;28;20443;-57
2023/09/28 08:29:15;;;;;;;17.93;8.87;;;24.00;99.90;;;;;;5059382;28;20444;-58
2023/09/28 08:31:42;;;;;;;9.97;8.80;;;25.60;99.90;;;;;;5059546;28;20409;-53
2023/09/28 08:34:13;;;;;;;11.63;9.83;;;27.10;99.90;;;;;;5059092;28;20480;-56
2023/09/28 08:36:40;;;;;;;14.10;10.33;;;28.60;99.90;;;;;;5059264;28;20473;-55
2023/09/28 08:39:08;;;;;;;15.20;10.23;;;30.20;99.90;;;;;;5059173;28;20539;-54
2023/09/28 08:41:43;;;;;;;10.63;9.60;;;31.30;97.30;;;;;;5059307;28;20435;-55
2023/09/28 08:44:14;;;;;;;12.77;8.90;;;32.40;93.30;;;;;;5059111;28;20436;-57
2023/09/28 08:46:43;;;;;;;13.93;8.67;;;;;;;;;;5059035;28;20405;-55
2023/09/28 08:49:14;;;;;;;10.50;9.40;;;33.90;80.80;;;;;;5059010;28;20444;-52
2023/09/28 08:51:41;;;;;;;11.90;9.47;;;34.40;76.90;;;;;;5058975;28;20428;-56
2023/09/28 08:54:09;;;;;;;11.60;9.63;;;34.90;73.60;;;;;;5058777;28;20447;-57
2023/09/28 08:56:39;;;;;;;11.83;10.37;;;35.40;67.50;;;;;;5058869;28;20508;-53
2023/09/28 08:59:10;;;;;;;11.73;9.53;;;35.40;68.10;;;;;;5058664;28;20448;-56
2023/09/28 09:01:41;;;;;;;9.67;8.67;;;35.50;65.90;;;;;;5058876;28;20444;-57
2023/09/28 09:04:08;;;;;;;10.20;8.97;;;35.20;65.80;;;;;;5058620;28;20431;-56
2023/09/28 09:06:36;;;;;;;12.90;10.10;;;35.00;65.60;;;;;;5058765;28;20427;-57
2023/09/28 09:09:06;;;;;;;9.67;8.77;;;35.00;64.70;;;;;;5058688;28;20416;-53
2023/09/28 09:11:37;;;;;;;9.87;8.87;;;;;;;;;;5058695;28;20492;-55
2023/09/28 09:14:04;;;;;;;13.83;7.83;;;35.10;64.00;;;;;;5058488;28;20448;-58
2023/09/28 09:16:31;;;;;;;14.50;8.93;;;34.40;65.90;;;;;;5058508;28;20435;-56
2023/09/28 09:18:59;;;;;;;13.53;8.80;;;33.20;68.60;;;;;;5058560;28;20404;-57
2023/09/28 09:21:28;;;;;;;12.53;8.10;;;32.10;72.20;;;;;;5058000;28;20428;-55
2023/09/28 09:24:03;;;;;;;10.90;8.40;;;31.00;76.60;;;;;;5058499;28;20444;-57
2023/09/28 09:26:39;;;;;;;9.83;8.13;;;29.30;82.60;;;;;;5058513;28;20436;-57
2023/09/28 09:29:07;;;;;;;12.03;7.63;;;29.20;83.60;;;;;;5058342;28;20420;-56
2023/09/28 09:31:34;;;;;;;9.83;8.60;;;;;;;;;;5058181;28;20420;-55
2023/09/28 09:34:04;;;;;;;9.27;8.13;;;29.20;89.20;;;;;;5058252;28;20458;-57
2023/09/28 09:36:33;;;;;;;9.37;8.23;;;30.40;87.10;;;;;;5058243;28;20416;-59
2023/09/28 09:39:00;;;;;;;12.07;8.33;;;31.40;82.40;;;;;;5058325;28;20404;-55
2023/09/28 09:41:30;;;;;;;10.70;8.63;;;32.10;79.70;;;;;;5057879;28;20455;-54
2023/09/28 09:43:59;;;;;;;9.40;7.93;;;32.80;77.60;;;;;;5058242;28;20408;-56
2023/09/28 09:46:27;;;;;;;9.80;6.80;;;33.40;74.70;;;;;;5058051;28;20432;-56
2023/09/28 09:48:56;;;;;;;6.90;6.30;;;33.80;73.50;;;;;;5058186;28;20440;-58
2023/09/28 09:51:24;;;;;;;7.33;6.50;;;34.30;71.20;;;;;;5058333;28;20471;-56
2023/09/28 09:53:55;;;;;;;8.20;7.07;;;34.90;69.20;;;;;;5058149;28;20490;-56
2023/09/28 09:56:22;;;;;;;13.03;6.97;;;;;;;;;;5058053;28;20462;-58
2023/09/28 09:58:53;;;;;;;8.70;7.80;;;34.80;66.80;;;;;;5058335;28;20413;-58
2023/09/28 10:01:20;;;;;;;9.90;6.70;;;34.90;67.30;;;;;;5058041;28;20457;-59
2023/09/28 10:03:50;;;;;;;7.73;6.60;;;35.10;65.70;;;;;;5058029;28;20500;-53
2023/09/28 10:06:19;;;;;;;8.30;6.60;;;35.20;64.80;;;;;;5057951;28;20490;-55
2023/09/28 10:08:49;;;;;;;7.43;6.70;;;35.00;91.00;;;;;;5057994;28;20428;-57
2023/09/28 10:11:17;;;;;;;8.43;6.60;;;35.20;91.30;;;;;;5057905;28;20482;-54
2023/09/28 10:13:50;;;;;;;9.50;7.00;;;35.10;64.30;;;;;;5057845;28;20455;-53
2023/09/28 10:16:19;;;;;;;8.40;6.90;;;35.00;64.50;;;;;;5057878;28;20454;-55
2023/09/28 10:18:49;;;;;;;7.93;6.90;;;35.00;64.30;;;;;;5057847;28;20435;-57
2023/09/28 10:21:17;;;;;;;10.90;7.40;;;35.10;90.00;;;;;;5057795;28;20646;-55
2023/09/28 10:23:44;;;;;;;10.03;6.50;;;35.10;63.30;;;;;;5057922;28;20416;-57
2023/09/28 10:26:14;;;;;;;8.27;7.47;;;35.20;64.40;;;;;;5057893;28;20447;-58
2023/09/28 10:29:02;;;;;;;7.40;6.20;;;35.10;61.20;;;;;;5057945;28;20435;-56
2023/09/28 10:31:31;;;;;;;9.10;5.93;;;34.70;61.50;;;;;;5057517;28;20511;-58
2023/09/28 10:33:59;;;;;;;8.63;6.00;;;34.30;81.80;;;;;;5061380;28;20451;-59
2023/09/28 10:36:30;;;;;;;11.10;5.27;;;33.50;90.10;;;;;;5061424;28;20456;-55
2023/09/28 10:39:14;;;;;;;6.17;5.67;;;33.40;63.90;;;;;;5061388;28;20436;-57
2023/09/28 10:41:45;;;;;;;10.53;5.50;;;32.80;64.90;;;;;;5061273;28;20440;-53
2023/09/28 10:44:16;;;;;;;5.50;5.00;;;32.50;64.70;;;;;;5061390;28;20446;-56
2023/09/28 10:46:46;;;;;;;6.00;5.40;;;32.40;66.00;;;;;;5061226;28;20440;-56
2023/09/28 10:49:15;;;;;;;7.33;6.27;;;31.70;93.10;;;;;;5061310;28;20413;-57
2023/09/28 10:51:44;;;;;;;6.87;6.17;;;31.70;68.00;;;;;;5061046;28;20452;-58
2023/09/28 10:54:13;;;;;;;9.97;6.03;;;31.40;69.60;;;;;;5060911;28;20519;-58
2023/09/28 10:56:41;;;;;;;8.57;5.80;;;;;;;;;;5061037;28;20440;-57
2023/09/28 10:59:09;;;;;;;6.97;5.70;;;31.10;68.90;;;;;;5061015;28;20423;-57
2023/09/28 11:01:47;;;;;;;6.30;5.67;;;30.60;94.60;;;;;;5061133;28;20467;-57
2023/09/28 11:04:17;;;;;;;6.07;5.57;;;30.70;71.40;;;;;;5061075;28;20412;-57
2023/09/28 11:06:44;;;;;;;12.00;6.53;;;30.70;70.90;;;;;;5060874;28;20441;-56
2023/09/28 11:09:14;;;;;;;6.10;4.87;;;30.60;70.90;;;;;;5060831;28;20447;-52
2023/09/28 11:11:41;;;;;;;20.47;15.30;;;30.20;70.90;;;;;;5060689;28;20447;-56
2023/09/28 11:14:10;;;;;;;6.50;5.63;;;30.10;70.40;;;;;;5060724;28;20440;-57
2023/09/28 11:16:38;;;;;;;5.50;5.00;;;;;;;;;;5060705;28;20471;-53
2023/09/28 11:19:07;;;;;;;6.20;3.93;;;29.60;70.50;;;;;;5060785;28;20413;-55
2023/09/28 11:21:36;;;;;;;6.80;6.10;;;29.40;71.30;;;;;;5060606;28;20468;-58
2023/09/28 11:24:04;;;;;;;4.50;4.10;;;29.30;71.70;;;;;;5060823;28;20436;-56
2023/09/28 11:26:38;;;;;;;8.17;4.60;;;29.10;71.00;;;;;;5060526;28;20507;-57
2023/09/28 11:29:05;;;;;;;4.10;3.70;;;29.00;71.90;;;;;;5060542;28;20411;-58
2023/09/28 11:31:35;;;;;;;6.00;4.43;;;29.00;71.00;;;;;;5060357;28;20437;-53
2023/09/28 11:34:05;;;;;;;5.73;5.23;;;28.90;71.90;;;;;;5060520;28;20437;-54
2023/09/28 11:36:34;;;;;;;5.60;4.97;;;28.80;72.50;;;;;;5060465;28;20454;-54
2023/09/28 11:39:01;;;;;;;5.10;4.60;;;28.70;73.30;;;;;;5060356;28;20401;-57
2023/09/28 11:41:28;;;;;;;6.97;4.80;;;;;;;;;;5060200;28;20483;-52
2023/09/28 11:43:57;;;;;;;5.17;4.40;;;28.60;73.90;;;;;;5059665;28;20405;-57
2023/09/28 11:46:25;;;;;;;5.50;5.00;;;28.40;72.90;;;;;;5060100;28;20432;-52
2023/09/28 11:49:04;;;;;;;7.33;5.20;;;28.40;73.60;;;;;;5060129;28;20413;-53
2023/09/28 11:51:33;;;;;;;7.30;4.80;;;28.20;73.60;;;;;;5060018;28;20448;-56
2023/09/28 11:54:01;;;;;;;6.00;4.60;;;27.50;73.40;;;;;;5060054;28;20440;-52
2023/09/28 11:56:29;;;;;;;6.20;5.10;;;28.10;74.50;;;;;;5059975;28;20409;-57
2023/09/28 11:58:57;;;;;;;5.73;5.23;;;28.00;74.60;;;;;;5060132;28;20400;-54
2023/09/28 12:01:25;;;;;;;6.43;4.97;;;28.00;75.80;;;;;;5059710;28;20447;-55
2023/09/28 12:03:52;;;;;;;5.00;4.30;;;28.10;75.30;;;;;;5059963;28;20409;-56
2023/09/28 12:06:19;;;;;;;5.60;5.07;;;28.10;96.80;;;;;;5060034;28;20416;-56
2023/09/28 12:08:48;;;;;;;5.63;5.03;;;28.00;76.20;;;;;;5059937;28;20423;-58
2023/09/28 12:11:15;;;;;;;6.00;4.73;;;28.10;76.50;;;;;;5059870;28;20432;-57
2023/09/28 12:13:42;;;;;;;6.67;5.17;;;28.00;78.00;;;;;;5059589;28;20492;-55
2023/09/28 12:16:10;;;;;;;6.23;4.30;;;;;;;;;;5059525;28;20478;-55
2023/09/28 12:18:39;;;;;;;7.80;4.70;;;27.60;78.50;;;;;;5059641;28;20448;-51
2023/09/28 12:21:07;;;;;;;14.90;5.90;;;27.70;78.90;;;;;;5059725;28;20495;-58
2023/09/28 12:23:33;;;;;;;7.27;4.57;;;27.70;77.90;;;;;;5059631;28;20424;-56
2023/09/28 12:26:03;;;;;;;5.30;4.67;;;27.60;78.40;;;;;;5059545;28;20412;-54
2023/09/28 12:28:30;;;;;;;8.07;4.60;;;27.70;78.60;;;;;;5059468;28;20478;-58
2023/09/28 12:30:58;;;;;;;8.60;5.07;;;27.70;97.60;;;;;;5059474;28;20447;-54
2023/09/28 12:33:25;;;;;;;7.13;4.67;;;28.80;78.90;;;;;;5059305;28;20474;-55
2023/09/28 12:35:53;;;;;;;6.03;3.77;;;27.80;77.60;;;;;;5059225;28;20460;-56
2023/09/28 12:38:20;;;;;;;4.97;4.00;;;28.00;76.10;;;;;;5059211;28;20461;-55
2023/09/28 12:40:48;;;;;;;5.13;4.63;;;28.30;76.40;;;;;;5059287;28;20451;-56
2023/09/28 12:43:17;;;;;;;5.17;4.67;;;28.60;77.10;;;;;;5059177;28;20478;-55
2023/09/28 12:45:45;;;;;;;6.50;4.87;;;28.80;74.80;;;;;;5059199;28;20447;-56
2023/09/28 12:48:17;;;;;;;9.63;4.67;;;28.80;72.90;;;;;;5059110;28;20436;-57
2023/09/28 12:50:45;;;;;;;4.53;3.93;;;28.80;73.70;;;;;;5059119;28;20439;-58